Time;durP1;ratioP1;P1;durP2;ratioP2;P2;SDS_P1;SDS_P2;PMS_P1;PMS_P2;Temp;Humidity;BMP_temperature;BMP_pressure;BME280_temperature;BME280_humidity;BME280_pressure;Samples;Min_cycle;Max_cycle;Signal;HPM_P1;HPM_P2
2023/11/24 00:01:19;;;;;;;1.03;0.93;;;;;;;7.83;100.00;98026.81;5059602;28;20233;-80
2023/11/24 00:03:46;;;;;;;1.83;0.90;;;;;;;7.79;100.00;98030.56;5058682;28;20276;-79
2023/11/24 00:06:12;;;;;;;1.57;0.83;;;;;;;7.78;100.00;98013.09;5059137;28;20221;-79
2023/11/24 00:08:39;;;;;;;0.93;0.90;;;;;;;7.74;100.00;98011.56;5058319;28;20208;-80
2023/11/24 00:11:08;;;;;;;0.70;0.67;;;;;;;7.72;100.00;97998.50;5058420;28;20229;-79
2023/11/24 00:13:35;;;;;;;0.80;0.80;;;;;;;7.73;100.00;97996.72;5056920;28;20741;-79
2023/11/24 00:16:03;;;;;;;1.10;0.90;;;;;;;7.70;100.00;97989.84;5058058;28;20208;-80
2023/11/24 00:18:30;;;;;;;1.33;0.70;;;;;;;7.63;100.00;97972.75;5059104;28;20208;-79
2023/11/24 00:20:57;;;;;;;0.80;0.80;;;;;;;7.66;100.00;97977.00;5058353;28;20220;-79
2023/11/24 00:23:24;;;;;;;0.70;0.70;;;;;;;7.64;100.00;97970.97;5058933;28;20292;-79
2023/11/24 00:25:50;;;;;;;1.23;0.83;;;;;;;7.68;100.00;97975.09;5058644;28;20266;-79
2023/11/24 00:28:18;;;;;;;2.30;1.00;;;;;;;7.68;100.00;97964.59;5059089;28;20209;-80
2023/11/24 00:30:45;;;;;;;1.80;1.13;;;;;;;7.72;100.00;97955.59;5058215;28;20588;-80
2023/11/24 00:33:12;;;;;;;0.90;0.83;;;;;;;7.75;100.00;97953.59;5058485;28;20255;-78
2023/11/24 00:35:39;;;;;;;2.40;1.00;;;;;;;7.76;100.00;97957.06;5058824;28;20212;-79
2023/11/24 00:38:08;;;;;;;2.13;0.80;;;;;;;7.80;100.00;97948.06;5058974;28;20233;-78
2023/11/24 00:40:35;;;;;;;0.70;0.60;;;;;;;7.81;100.00;97928.69;5058953;28;20220;-80
2023/11/24 00:43:01;;;;;;;0.70;0.70;;;;;;;7.83;100.00;97911.88;5059142;28;20239;-79
2023/11/24 00:45:29;;;;;;;0.83;0.70;;;;;;;7.83;100.00;97908.44;5058793;28;20204;-80
2023/11/24 00:47:56;;;;;;;0.87;0.60;;;;;;;7.85;100.00;97902.09;5054991;28;20301;-80
2023/11/24 00:50:22;;;;;;;1.67;0.83;;;;;;;7.90;100.00;97897.41;5055548;28;20208;-78
2023/11/24 00:52:49;;;;;;;0.90;0.80;;;;;;;7.93;100.00;97896.38;5059554;28;20232;-78
2023/11/24 00:55:15;;;;;;;0.57;0.57;;;;;;;7.93;100.00;97899.00;5058564;28;20218;-78
2023/11/24 00:57:42;;;;;;;0.80;0.77;;;;;;;7.90;100.00;97886.88;5057284;28;20209;-78
2023/11/24 01:00:10;;;;;;;0.70;0.70;;;;;;;7.93;100.00;97888.47;5056363;28;20216;-78
2023/11/24 01:02:38;;;;;;;0.73;0.60;;;;;;;7.97;100.00;97882.09;5057221;28;20228;-79
2023/11/24 01:05:05;;;;;;;0.87;0.70;;;;;;;7.95;100.00;97878.72;5053932;28;20199;-78
2023/11/24 01:07:31;;;;;;;2.10;0.60;;;;;;;7.97;100.00;97892.63;5047816;28;20688;-78
2023/11/24 01:09:58;;;;;;;0.80;0.70;;;;;;;8.00;100.00;97893.28;5053983;28;20217;-78
2023/11/24 01:12:24;;;;;;;0.70;0.70;;;;;;;7.99;100.00;97890.72;5051158;28;20226;-79
2023/11/24 01:14:51;;;;;;;0.70;0.70;;;;;;;7.98;100.00;97892.53;5052039;28;20718;-79
2023/11/24 01:17:17;;;;;;;0.60;0.60;;;;;;;7.96;100.00;97890.94;5057907;28;20852;-79
2023/11/24 01:19:45;;;;;;;1.27;0.80;;;;;;;7.97;100.00;97898.72;5062154;28;20212;-79
2023/11/24 01:22:12;;;;;;;1.23;0.60;;;;;;;8.01;100.00;97902.00;5061487;28;20233;-79
2023/11/24 01:24:39;;;;;;;0.60;0.60;;;;;;;7.96;100.00;97901.47;5061804;28;20231;-79
2023/11/24 01:27:06;;;;;;;1.90;0.70;;;;;;;7.96;100.00;97901.47;5061599;28;20672;-79
2023/11/24 01:29:32;;;;;;;0.90;0.70;;;;;;;8.00;100.00;97908.19;5062156;28;20228;-78
2023/11/24 01:31:59;;;;;;;1.70;0.80;;;;;;;7.98;100.00;97904.81;5061914;28;20227;-78
2023/11/24 01:34:25;;;;;;;0.97;0.70;;;;;;;8.01;100.00;97920.41;5061117;28;20239;-79
2023/11/24 01:36:53;;;;;;;1.27;0.60;;;;;;;8.01;100.00;97915.16;5061265;28;20217;-79
2023/11/24 01:39:20;;;;;;;0.63;0.63;;;;;;;8.02;100.00;97915.06;5061335;28;20599;-79
2023/11/24 01:41:47;;;;;;;0.50;0.50;;;;;;;8.06;100.00;97911.31;5061556;28;20225;-79
2023/11/24 01:44:14;;;;;;;0.60;0.60;;;;;;;8.07;100.00;97914.75;5060782;28;20688;-79
2023/11/24 01:46:40;;;;;;;0.97;0.67;;;;;;;8.06;100.00;97905.19;5061410;28;20233;-79
2023/11/24 01:49:09;;;;;;;0.80;0.67;;;;;;;8.05;100.00;97906.13;5060983;28;20224;-78
2023/11/24 01:51:36;;;;;;;0.63;0.50;;;;;;;8.08;100.00;97896.25;5062085;28;20295;-78
2023/11/24 01:54:06;;;;;;;0.67;0.67;;;;;;;8.13;100.00;97883.66;5060923;28;20233;-78
2023/11/24 01:56:32;;;;;;;0.50;0.50;;;;;;;8.17;100.00;97886.94;5062324;28;20265;-79
2023/11/24 01:58:59;;;;;;;0.50;0.50;;;;;;;8.23;100.00;97881.31;5061092;28;20667;-79
2023/11/24 02:01:30;;;;;;;0.50;0.50;;;;;;;8.31;100.00;97876.41;5061160;28;20596;-78
2023/11/24 02:03:56;;;;;;;0.60;0.60;;;;;;;8.49;100.00;97875.22;5061423;28;20561;-79
2023/11/24 02:06:24;;;;;;;0.67;0.57;;;;;;;8.60;100.00;97862.19;5061016;28;20674;-79
2023/11/24 02:08:51;;;;;;;0.80;0.60;;;;;;;8.66;100.00;97867.06;5061749;28;20209;-79
2023/11/24 02:11:19;;;;;;;0.60;0.60;;;;;;;8.72;100.00;97859.59;5060820;28;20238;-79
2023/11/24 02:13:48;;;;;;;0.70;0.70;;;;;;;8.75;100.00;97851.47;5060602;28;20235;-79
2023/11/24 02:16:14;;;;;;;1.07;0.60;;;;;;;8.78;100.00;97861.84;5059782;28;20213;-80
2023/11/24 02:18:41;;;;;;;1.40;0.67;;;;;;;8.75;100.00;97869.94;5060825;28;20212;-80
2023/11/24 02:21:07;;;;;;;1.50;0.77;;;;;;;8.79;100.00;97867.94;5060411;28;20726;-79
2023/11/24 02:23:35;;;;;;;0.63;0.63;;;;;;;8.79;100.00;97860.03;5060159;28;20223;-80
2023/11/24 02:26:02;;;;;;;0.87;0.80;;;;;;;8.80;100.00;97861.72;5057945;28;20228;-80
2023/11/24 02:28:28;;;;;;;0.77;0.70;;;;;;;8.77;100.00;97856.66;5060277;28;20241;-79
2023/11/24 02:30:59;;;;;;;2.33;1.00;;;;;;;8.71;100.00;97859.69;5058521;28;20226;-79
2023/11/24 02:33:26;;;;;;;1.07;0.80;;;;;;;8.70;100.00;97866.75;5060320;28;20213;-79
2023/11/24 02:35:53;;;;;;;0.73;0.70;;;;;;;8.68;100.00;97859.88;5059111;28;20214;-78
2023/11/24 02:38:19;;;;;;;0.63;0.63;;;;;;;8.70;100.00;97868.56;5058679;28;20214;-79
2023/11/24 02:40:47;;;;;;;2.03;0.67;;;;;;;8.72;100.00;97864.88;5060393;28;20555;-79
2023/11/24 02:43:15;;;;;;;0.90;0.70;;;;;;;8.76;100.00;97861.06;5060284;28;20219;-79
2023/11/24 02:45:41;;;;;;;0.70;0.67;;;;;;;8.73;100.00;97852.53;5059300;28;20577;-79
2023/11/24 02:48:08;;;;;;;0.70;0.70;;;;;;;8.70;100.00;97852.75;5060919;28;20216;-79
2023/11/24 02:50:35;;;;;;;1.30;0.80;;;;;;;8.69;100.00;97843.16;5060163;28;20207;-79
2023/11/24 02:53:01;;;;;;;0.60;0.60;;;;;;;8.66;100.00;97838.94;5060076;28;20235;-79
2023/11/24 02:55:28;;;;;;;0.60;0.60;;;;;;;8.66;100.00;97824.91;5060366;28;20232;-79
2023/11/24 02:57:55;;;;;;;1.10;0.73;;;;;;;8.64;100.00;97822.38;5060271;28;20214;-79
2023/11/24 03:00:22;;;;;;;0.80;0.70;;;;;;;8.63;100.00;97804.88;5059841;28;20224;-79
2023/11/24 03:02:49;;;;;;;0.90;0.60;;;;;;;8.62;100.00;97802.38;5060113;28;20269;-79
2023/11/24 03:05:15;;;;;;;1.87;0.63;;;;;;;8.59;100.00;97786.75;5059285;28;20217;-79
2023/11/24 03:07:42;;;;;;;0.60;0.60;;;;;;;8.53;100.00;97771.34;5060642;28;20217;-79
2023/11/24 03:10:09;;;;;;;0.63;0.60;;;;;;;8.48;100.00;97799.78;5060310;28;20209;-79
2023/11/24 03:12:36;;;;;;;0.40;0.40;;;;;;;8.46;100.00;97796.41;5060896;28;20231;-79
2023/11/24 03:15:04;;;;;;;0.70;0.60;;;;;;;8.50;100.00;97796.09;5060709;28;20233;-79
2023/11/24 03:17:31;;;;;;;0.80;0.63;;;;;;;8.51;100.00;97770.63;5059658;28;20210;-79
2023/11/24 03:19:57;;;;;;;0.57;0.40;;;;;;;8.53;100.00;97795.91;5060220;28;20215;-79
2023/11/24 03:22:24;;;;;;;0.40;0.40;;;;;;;8.56;100.00;97786.97;5060164;28;20236;-79
2023/11/24 03:24:50;;;;;;;0.30;0.30;;;;;;;8.59;100.00;97782.34;5059543;28;20206;-79
2023/11/24 03:27:16;;;;;;;0.40;0.40;;;;;;;8.62;100.00;97765.50;5059245;28;20224;-79
2023/11/24 03:29:43;;;;;;;0.40;0.40;;;;;;;8.61;100.00;97735.66;5060456;28;20213;-79
2023/11/24 03:32:11;;;;;;;0.37;0.37;;;;;;;8.60;100.00;97738.38;5060175;28;20239;-79
2023/11/24 03:34:37;;;;;;;0.50;0.50;;;;;;;8.62;100.00;97733.88;5060528;28;20233;-79
2023/11/24 03:37:04;;;;;;;0.30;0.30;;;;;;;8.62;100.00;97739.97;5060501;28;20219;-79
2023/11/24 03:39:30;;;;;;;0.77;0.40;;;;;;;8.62;100.00;97752.31;5059325;28;20210;-79
2023/11/24 03:41:57;;;;;;;0.40;0.40;;;;;;;8.65;100.00;97755.59;5058304;28;20239;-79
2023/11/24 03:44:23;;;;;;;0.40;0.40;;;;;;;8.66;100.00;97751.16;5058670;28;20340;-79
2023/11/24 03:46:50;;;;;;;0.30;0.30;;;;;;;8.64;100.00;97753.88;5059672;28;20214;-79
2023/11/24 03:49:19;;;;;;;0.73;0.60;;;;;;;8.62;100.00;97754.97;5059306;28;20465;-79
2023/11/24 03:51:46;;;;;;;0.37;0.37;;;;;;;8.60;100.00;97762.09;5058505;28;20703;-79
2023/11/24 03:54:12;;;;;;;0.30;0.30;;;;;;;8.59;100.00;97765.69;5058374;28;20271;-78
2023/11/24 03:56:39;;;;;;;0.30;0.30;;;;;;;8.59;100.00;97760.41;5059263;28;20220;-78
2023/11/24 03:59:05;;;;;;;0.40;0.40;;;;;;;8.62;100.00;97760.22;5059162;28;20214;-79
2023/11/24 04:01:32;;;;;;;0.40;0.40;;;;;;;8.65;100.00;97760.00;5059089;28;20230;-79
2023/11/24 04:04:00;;;;;;;0.37;0.37;;;;;;;8.64;100.00;97759.16;5056317;28;20239;-80
2023/11/24 04:06:27;;;;;;;0.47;0.30;;;;;;;8.69;100.00;97756.22;5056755;28;20303;-80
2023/11/24 04:08:54;;;;;;;0.50;0.40;;;;;;;8.69;100.00;97749.16;5056135;28;20210;-80
2023/11/24 04:11:21;;;;;;;0.80;0.37;;;;;;;8.67;100.00;97752.81;5055852;28;20234;-80
2023/11/24 04:13:47;;;;;;;1.17;0.40;;;;;;;8.67;100.00;97750.19;5055670;28;20209;-80
2023/11/24 04:16:14;;;;;;;0.77;0.53;;;;;;;8.58;100.00;97735.84;5054967;28;20229;-80
2023/11/24 04:18:40;;;;;;;0.37;0.37;;;;;;;8.58;100.00;97732.38;5056011;28;20680;-80
2023/11/24 04:21:07;;;;;;;0.40;0.40;;;;;;;8.66;100.00;97733.56;5055465;28;20230;-80
2023/11/24 04:23:35;;;;;;;0.40;0.40;;;;;;;8.73;100.00;97736.59;5057202;28;20214;-79
2023/11/24 04:26:02;;;;;;;0.40;0.40;;;;;;;8.75;100.00;97732.91;5058665;28;20673;-79
2023/11/24 04:28:29;;;;;;;0.30;0.30;;;;;;;8.78;100.00;97723.97;5058682;28;20207;-80
2023/11/24 04:30:55;;;;;;;0.30;0.30;;;;;;;8.85;100.00;97720.81;5057558;28;20211;-79
2023/11/24 04:33:22;;;;;;;0.30;0.30;;;;;;;8.81;100.00;97702.69;5058371;28;20214;-80
2023/11/24 04:35:49;;;;;;;0.40;0.40;;;;;;;8.88;100.00;97693.41;5058425;28;20245;-78
2023/11/24 04:38:16;;;;;;;1.33;0.40;;;;;;;8.91;100.00;97680.00;5058722;28;20210;-80
2023/11/24 04:40:44;;;;;;;0.60;0.43;;;;;;;8.92;100.00;97737.03;5057649;28;20211;-79
2023/11/24 04:43:10;;;;;;;1.47;0.50;;;;;;;8.62;100.00;97778.66;5061814;28;20222;-79
2023/11/24 04:45:39;;;;;;;2.13;0.80;;;;;;;7.80;100.00;97769.16;5063020;28;20672;-79
2023/11/24 04:48:06;;;;;;;1.87;0.77;;;;;;;7.36;100.00;97785.09;5062235;28;20209;-79
2023/11/24 04:50:34;;;;;;;1.20;0.70;;;;;;;7.09;100.00;97780.69;5061462;28;20208;-79
2023/11/24 04:53:01;;;;;;;1.43;0.80;;;;;;;6.94;100.00;97786.88;5061680;28;20315;-79
2023/11/24 04:55:27;;;;;;;3.40;0.70;;;;;;;6.90;100.00;97785.38;5061590;28;20227;-78
2023/11/24 04:57:55;;;;;;;1.60;0.87;;;;;;;6.83;100.00;97785.84;5062687;28;20635;-79
2023/11/24 05:00:21;;;;;;;1.37;0.80;;;;;;;6.76;100.00;97788.00;5061552;28;20212;-79
2023/11/24 05:02:49;;;;;;;2.53;1.00;;;;;;;6.74;100.00;97779.38;5061159;28;20231;-79
2023/11/24 05:05:17;;;;;;;5.67;1.00;;;;;;;6.69;100.00;97781.41;5060835;28;20204;-78
2023/11/24 05:07:43;;;;;;;4.20;1.17;;;;;;;6.64;100.00;97778.22;5060777;28;20595;-79
2023/11/24 05:10:10;;;;;;;2.23;1.13;;;;;;;6.65;100.00;97781.69;5061176;28;20223;-79
2023/11/24 05:12:36;;;;;;;3.13;1.50;;;;;;;6.62;100.00;97780.09;5060954;28;20736;-79
2023/11/24 05:15:07;;;;;;;5.07;1.33;;;;;;;6.56;100.00;97777.81;5061152;28;20318;-78
2023/11/24 05:17:34;;;;;;;2.23;1.07;;;;;;;6.50;100.00;97775.56;5060910;28;20310;-79
2023/11/24 05:20:01;;;;;;;3.17;1.17;;;;;;;6.50;100.00;97778.19;5060625;28;20240;-79
2023/11/24 05:22:27;;;;;;;3.73;1.27;;;;;;;6.49;100.00;97773.88;5059993;28;20232;-78
2023/11/24 05:24:53;;;;;;;3.53;1.20;;;;;;;6.47;100.00;97775.72;5059745;28;20211;-79
2023/11/24 05:27:20;;;;;;;4.73;1.63;;;;;;;6.36;100.00;97772.88;5060646;28;20211;-79
2023/11/24 05:29:46;;;;;;;5.90;1.30;;;;;;;6.34;100.00;97766.88;5059399;28;20221;-78
2023/11/24 05:32:14;;;;;;;6.53;1.73;;;;;;;6.30;100.00;97767.97;5059625;28;20231;-79
2023/11/24 05:34:41;;;;;;;9.10;2.13;;;;;;;6.28;100.00;97764.59;5059799;28;20228;-79
2023/11/24 05:37:07;;;;;;;4.13;1.30;;;;;;;6.23;100.00;97761.41;5060077;28;20336;-79
2023/11/24 05:39:35;;;;;;;5.07;1.73;;;;;;;6.19;100.00;97762.53;5060547;28;20207;-78
2023/11/24 05:42:01;;;;;;;3.40;1.27;;;;;;;6.13;100.00;97755.00;5060364;28;20235;-79
2023/11/24 05:44:27;;;;;;;4.40;1.50;;;;;;;6.12;100.00;97753.28;5059184;28;20216;-79
2023/11/24 05:46:54;;;;;;;5.00;1.80;;;;;;;6.10;100.00;97756.97;5059474;28;20577;-79
2023/11/24 05:49:22;;;;;;;5.70;2.53;;;;;;;6.08;100.00;97751.81;5059112;28;20234;-78
2023/11/24 05:51:48;;;;;;;2.60;1.57;;;;;;;6.09;100.00;97748.25;5058832;28;20232;-79
2023/11/24 05:54:15;;;;;;;6.07;1.30;;;;;;;6.04;100.00;97750.28;5057452;28;20212;-78
2023/11/24 05:56:42;;;;;;;5.43;1.50;;;;;;;6.01;100.00;97755.72;5058102;28;20332;-79
2023/11/24 05:59:08;;;;;;;10.97;2.10;;;;;;;6.02;100.00;97757.41;5058564;28;20218;-79
2023/11/24 06:01:35;;;;;;;9.00;2.00;;;;;;;6.02;100.00;97740.81;5060297;28;20577;-79
2023/11/24 06:04:02;;;;;;;3.40;1.90;;;;;;;5.99;100.00;97730.50;5058608;28;20705;-79
2023/11/24 06:06:30;;;;;;;5.67;2.10;;;;;;;6.03;100.00;97714.50;5058794;28;20215;-79
2023/11/24 06:08:56;;;;;;;5.17;1.80;;;;;;;6.05;100.00;97709.16;5058683;28;20216;-79
2023/11/24 06:11:23;;;;;;;6.17;2.10;;;;;;;6.03;100.00;97706.63;5059516;28;20227;-80
2023/11/24 06:13:49;;;;;;;5.47;1.83;;;;;;;6.00;100.00;97701.56;5058065;28;20215;-79
2023/11/24 06:16:16;;;;;;;7.80;1.70;;;;;;;6.00;100.00;97706.81;5059205;28;20234;-80
2023/11/24 06:18:44;;;;;;;2.63;1.50;;;;;;;5.98;100.00;97692.91;5058664;28;20204;-79
2023/11/24 06:21:12;;;;;;;6.33;1.93;;;;;;;5.97;100.00;97691.25;5058834;28;20682;-79
2023/11/24 06:23:40;;;;;;;6.30;1.90;;;;;;;5.97;100.00;97696.47;5059209;28;20207;-79
2023/11/24 06:26:09;;;;;;;19.57;2.67;;;;;;;5.98;100.00;97690.31;5058977;28;20203;-79
2023/11/24 06:28:36;;;;;;;5.67;1.43;;;;;;;5.97;100.00;97690.38;5058917;28;20576;-81
2023/11/24 06:31:03;;;;;;;3.70;1.40;;;;;;;5.97;100.00;97683.38;5058014;28;20242;-78
2023/11/24 06:33:29;;;;;;;6.27;1.57;;;;;;;5.97;100.00;97677.28;5058416;28;20648;-78
2023/11/24 06:35:56;;;;;;;4.53;1.60;;;;;;;6.02;100.00;97680.47;5058778;28;20246;-79
2023/11/24 06:38:22;;;;;;;6.27;2.00;;;;;;;6.05;100.00;97683.75;5058590;28;20218;-79
2023/11/24 06:40:50;;;;;;;3.53;1.63;;;;;;;6.07;100.00;97686.31;5058340;28;20219;-79
2023/11/24 06:43:17;;;;;;;2.67;1.60;;;;;;;6.03;100.00;97677.78;5058173;28;20605;-79
2023/11/24 06:45:44;;;;;;;5.03;1.20;;;;;;;6.10;100.00;97692.22;5058279;28;20246;-80
2023/11/24 06:48:11;;;;;;;3.30;1.50;;;;;;;6.07;100.00;97681.91;5057539;28;20269;-80
2023/11/24 06:50:37;;;;;;;5.23;1.77;;;;;;;6.08;100.00;97680.97;5055314;28;20568;-77
2023/11/24 06:53:04;;;;;;;2.00;1.37;;;;;;;6.12;100.00;97669.34;5052792;28;20394;-78
2023/11/24 06:55:30;;;;;;;3.93;1.70;;;;;;;6.12;100.00;97669.34;5053796;28;20732;-79
2023/11/24 06:57:59;;;;;;;4.23;1.63;;;;;;;6.17;100.00;97659.44;5057939;28;20214;-80
2023/11/24 07:00:25;;;;;;;5.13;1.47;;;;;;;6.16;100.00;97663.00;5058747;28;20214;-80
2023/11/24 07:02:51;;;;;;;3.40;1.43;;;;;;;6.20;100.00;97667.13;5060064;28;20594;-80
2023/11/24 07:05:19;;;;;;;7.53;2.47;;;;;;;6.28;100.00;97679.81;5059520;28;20200;-79
2023/11/24 07:07:46;;;;;;;5.40;2.00;;;;;;;6.33;100.00;97682.97;5059617;28;20288;-80
2023/11/24 07:10:13;;;;;;;6.27;1.67;;;;;;;6.38;100.00;97681.78;5059654;28;20211;-80
2023/11/24 07:12:42;;;;;;;5.80;2.00;;;;;;;6.39;100.00;97657.22;5058866;28;20234;-79
2023/11/24 07:15:11;;;;;;;5.07;1.67;;;;;;;6.41;100.00;97657.97;5057655;28;20228;-80
2023/11/24 07:17:38;;;;;;;7.73;1.37;;;;;;;6.33;100.00;97662.84;5055832;28;20212;-80
2023/11/24 07:20:05;;;;;;;3.07;1.20;;;;;;;6.34;100.00;97675.03;5056040;28;20225;-80
2023/11/24 07:22:31;;;;;;;3.70;1.40;;;;;;;6.34;100.00;97675.03;5055246;28;20239;-79
2023/11/24 07:24:58;;;;;;;6.17;1.80;;;;;;;6.41;100.00;97680.75;5056981;28;20208;-78
2023/11/24 07:27:25;;;;;;;8.23;2.50;;;;;;;6.46;100.00;97676.91;5053778;28;20222;-78
2023/11/24 07:29:51;;;;;;;1.90;1.20;;;;;;;6.45;100.00;97679.63;5054027;28;20218;-77
2023/11/24 07:32:24;;;;;;;5.37;1.20;;;;;;;6.37;100.00;97680.09;5055739;28;20227;-79
2023/11/24 07:34:52;;;;;;;4.40;1.37;;;;;;;6.35;100.00;97675.88;5053002;28;20239;-78
2023/11/24 07:37:18;;;;;;;7.93;1.50;;;;;;;6.27;100.00;97684.19;5052555;28;20619;-79
2023/11/24 07:39:45;;;;;;;3.57;1.10;;;;;;;6.25;100.00;97658.97;5053183;28;20214;-79
2023/11/24 07:42:11;;;;;;;4.80;1.23;;;;;;;6.17;100.00;97669.91;5052905;28;20231;-79
2023/11/24 07:44:38;;;;;;;2.23;1.20;;;;;;;6.13;100.00;97642.19;5053360;28;20221;-79
2023/11/24 07:47:05;;;;;;;3.70;1.13;;;;;;;6.16;100.00;97647.25;5054944;28;20226;-79
2023/11/24 07:49:33;;;;;;;7.23;1.60;;;;;;;6.13;100.00;97655.31;5054952;28;20226;-79
2023/11/24 07:52:01;;;;;;;6.63;1.90;;;;;;;6.15;100.00;97653.44;5055878;28;20245;-79
2023/11/24 07:54:27;;;;;;;6.25;1.60;;;;;;;6.13;100.00;97644.81;5054248;28;20435;-79
2023/11/24 07:56:55;;;;;;;5.63;1.93;;;;;;;6.11;100.00;97646.66;5055062;28;20227;-79
2023/11/24 07:59:21;;;;;;;3.13;1.70;;;;;;;6.18;100.00;97653.25;5055299;28;20562;-79
2023/11/24 08:01:50;;;;;;;5.23;1.73;;;;;;;6.26;100.00;97645.78;5054612;28;20231;-79
2023/11/24 08:04:18;;;;;;;2.80;1.33;;;;;;;6.23;100.00;97639.88;5053978;28;20225;-79
2023/11/24 08:06:46;;;;;;;5.40;1.30;;;;;;;6.30;100.00;97621.03;5055059;28;20206;-79
2023/11/24 08:09:13;;;;;;;4.57;1.83;;;;;;;6.29;100.00;97624.59;5054829;28;20625;-79
2023/11/24 08:11:39;;;;;;;3.90;1.47;;;;;;;6.35;100.00;97618.97;5054596;28;20224;-79
2023/11/24 08:14:06;;;;;;;5.33;1.57;;;;;;;6.39;100.00;97630.13;5053765;28;20215;-79
2023/11/24 08:16:32;;;;;;;5.23;1.57;;;;;;;6.43;100.00;97631.63;5054268;28;20232;-79
2023/11/24 08:18:59;;;;;;;7.27;1.80;;;;;;;6.47;100.00;97623.47;5055158;28;20214;-79
2023/11/24 08:21:25;;;;;;;7.30;2.50;;;;;;;6.45;100.00;97609.63;5054889;28;20235;-79
2023/11/24 08:23:54;;;;;;;4.53;1.80;;;;;;;6.47;100.00;97612.16;5054074;28;20215;-79
2023/11/24 08:26:21;;;;;;;4.90;1.90;;;;;;;6.48;100.00;97596.28;5051753;28;20663;-79
2023/11/24 08:28:48;;;;;;;3.90;1.93;;;;;;;6.52;100.00;97589.91;5054540;28;20212;-79
2023/11/24 08:31:17;;;;;;;9.80;2.00;;;;;;;6.63;100.00;97597.13;5054632;28;20232;-79
2023/11/24 08:33:44;;;;;;;4.87;1.70;;;;;;;6.64;100.00;97604.91;5054162;28;20207;-79
2023/11/24 08:36:10;;;;;;;3.20;1.73;;;;;;;6.66;100.00;97608.28;5054161;28;20239;-79
2023/11/24 08:38:37;;;;;;;4.67;1.80;;;;;;;6.67;100.00;97607.38;5053874;28;20302;-79
2023/11/24 08:41:13;;;;;;;3.77;1.90;;;;;;;6.69;100.00;97608.09;5053772;28;20321;-78
2023/11/24 08:43:39;;;;;;;6.13;1.80;;;;;;;6.73;100.00;97614.00;5049694;28;20770;-78
2023/11/24 08:46:07;;;;;;;4.63;2.03;;;;;;;6.75;100.00;97597.22;5035592;28;20209;-79
2023/11/24 08:48:34;;;;;;;4.57;1.93;;;;;;;6.77;100.00;97605.84;5036592;28;20244;-79
2023/11/24 08:51:00;;;;;;;3.53;2.00;;;;;;;6.76;100.00;97588.41;5035731;28;20235;-79
2023/11/24 08:53:27;;;;;;;5.07;2.00;;;;;;;6.77;100.00;97589.25;5036089;28;20213;-79
2023/11/24 08:55:54;;;;;;;4.37;1.83;;;;;;;6.82;100.00;97581.91;5035157;28;20225;-79
2023/11/24 08:58:22;;;;;;;6.10;2.33;;;;;;;6.86;100.00;97579.00;5034518;28;20219;-79
2023/11/24 09:00:49;;;;;;;5.97;2.20;;;;;;;6.96;100.00;97576.66;5034716;28;20307;-79
2023/11/24 09:03:17;;;;;;;4.57;2.10;;;;;;;7.04;100.00;97580.47;5035961;28;20197;-79
2023/11/24 09:05:45;;;;;;;3.27;2.03;;;;;;;7.09;100.00;97570.50;5033544;28;20212;-79
2023/11/24 09:08:12;;;;;;;7.33;1.97;;;;;;;7.13;100.00;97574.63;5033362;28;20730;-79
2023/11/24 09:10:38;;;;;;;8.77;2.30;;;;;;;7.20;100.00;97554.88;5050705;28;20219;-79
2023/11/24 09:13:05;;;;;;;9.50;2.93;;;;;;;7.23;100.00;97557.31;5053889;28;20222;-79
2023/11/24 09:15:33;;;;;;;4.63;2.10;;;;;;;7.23;100.00;97554.69;5054025;28;20212;-79
2023/11/24 09:18:01;;;;;;;3.23;1.70;;;;;;;7.22;100.00;97555.66;5054050;28;20225;-79
2023/11/24 09:20:28;;;;;;;3.07;1.37;;;;;;;7.18;100.00;97557.59;5046971;28;20205;-79
2023/11/24 09:22:55;;;;;;;4.77;1.83;;;;;;;7.16;100.00;97558.66;5034126;28;20331;-79
2023/11/24 09:25:21;;;;;;;6.07;1.87;;;;;;;7.16;100.00;97556.03;5035085;28;20209;-80
2023/11/24 09:27:48;;;;;;;7.00;1.97;;;;;;;7.23;100.00;97552.88;5037962;28;20205;-78
2023/11/24 09:30:14;;;;;;;6.47;2.20;;;;;;;7.28;100.00;97556.06;5037115;28;20220;-79
2023/11/24 09:32:43;;;;;;;4.57;1.80;;;;;;;7.27;100.00;97548.28;5036753;28;20299;-78
2023/11/24 09:35:09;;;;;;;9.03;2.53;;;;;;;7.24;100.00;97551.94;5036867;28;20208;-79
2023/11/24 09:37:36;;;;;;;10.32;2.10;;;;;;;7.22;100.00;97545.13;5036175;28;20477;-79
2023/11/24 09:40:03;;;;;;;9.40;1.87;;;;;;;7.20;100.00;97546.16;5036181;28;20209;-79
2023/11/24 09:42:33;;;;;;;4.47;1.80;;;;;;;7.21;100.00;97542.59;5036545;28;20290;-79
2023/11/24 09:45:03;;;;;;;5.63;1.70;;;;;;;7.16;100.00;97531.53;5035731;28;20204;-78
2023/11/24 09:47:29;;;;;;;8.33;1.70;;;;;;;7.21;100.00;97532.09;5036558;28;20671;-79
2023/11/24 09:50:01;;;;;;;4.50;2.83;;;;;;;7.27;100.00;97536.94;5036279;28;20219;-79
2023/11/24 09:52:28;;;;;;;6.90;1.70;;;;;;;7.31;100.00;97526.13;5036537;28;20264;-80
2023/11/24 09:54:58;;;;;;;6.57;2.07;;;;;;;7.29;100.00;97522.75;5035707;28;20209;-81
2023/11/24 09:57:25;;;;;;;8.37;2.40;;;;;;;7.28;100.00;97510.56;5036173;28;20228;-79
2023/11/24 09:59:52;;;;;;;4.07;2.03;;;;;;;7.30;100.00;97513.94;5035922;28;20208;-80
2023/11/24 10:02:23;;;;;;;5.47;2.03;;;;;;;7.29;100.00;97488.59;5036429;28;20228;-80
2023/11/24 10:04:49;;;;;;;5.27;2.03;;;;;;;7.27;100.00;97479.94;5036134;28;20231;-80
2023/11/24 10:07:21;;;;;;;8.63;2.33;;;;;;;7.26;100.00;97478.25;5036064;28;20208;-80
2023/11/24 10:09:48;;;;;;;21.83;1.77;;;;;;;7.29;100.00;97468.38;5036157;28;20238;-81
2023/11/24 10:12:16;;;;;;;8.50;2.33;;;;;;;7.40;100.00;97457.16;5036722;28;20229;-78
2023/11/24 10:14:43;;;;;;;6.40;1.60;;;;;;;7.45;100.00;97447.16;5035312;28;20208;-78
2023/11/24 10:17:10;;;;;;;6.97;1.70;;;;;;;7.49;100.00;97451.28;5036846;28;20336;-79
2023/11/24 10:19:36;;;;;;;9.13;3.27;;;;;;;7.45;100.00;97448.03;5037012;28;20551;-80
2023/11/24 10:22:03;;;;;;;9.80;2.63;;;;;;;7.50;100.00;97439.81;5036216;28;20233;-80
2023/11/24 10:24:35;;;;;;;12.57;2.37;;;;;;;7.58;100.00;97445.38;5038548;28;20728;-80
2023/11/24 10:27:18;;;;;;;5.23;2.30;;;;;;;7.59;100.00;97436.59;5036176;28;20201;-79
2023/11/24 10:29:46;;;;;;;4.80;2.00;;;;;;;7.53;100.00;97450.16;5035907;28;20209;-79
2023/11/24 10:32:12;;;;;;;5.30;1.60;;;;;;;7.41;100.00;97440.47;5035594;28;20625;-79
2023/11/24 10:34:39;;;;;;;8.43;1.80;;;;;;;7.24;100.00;97438.13;5036374;28;20219;-79
2023/11/24 10:37:08;;;;;;;6.73;2.20;;;;;;;7.21;100.00;97443.56;5034590;28;20324;-79
2023/11/24 10:39:39;;;;;;;9.30;2.23;;;;;;;7.22;100.00;97440.00;5035334;28;20212;-79
2023/11/24 10:42:08;;;;;;;10.00;2.40;;;;;;;7.27;100.00;97442.31;5036372;28;20290;-79
2023/11/24 10:44:37;;;;;;;6.17;2.37;;;;;;;7.27;100.00;97443.16;5036701;28;20207;-79
2023/11/24 10:47:06;;;;;;;9.80;2.67;;;;;;;7.24;100.00;97432.84;5036480;28;20216;-79
2023/11/24 10:49:38;;;;;;;5.20;2.47;;;;;;;7.25;100.00;97437.16;5036373;28;20240;-79
2023/11/24 10:52:10;;;;;;;8.50;2.43;;;;;;;7.27;100.00;97419.50;5035397;28;20652;-79
2023/11/24 10:54:44;;;;;;;5.53;2.87;;;;;;;7.23;100.00;97418.88;5035236;28;20675;-79
2023/11/24 10:57:12;;;;;;;5.77;2.10;;;;;;;7.28;100.00;97408.06;5035715;28;20319;-77
2023/11/24 10:59:41;;;;;;;11.20;2.97;;;;;;;7.30;100.00;97406.97;5037874;28;20679;-78
2023/11/24 11:02:10;;;;;;;6.67;1.93;;;;;;;7.34;100.00;97387.44;5032802;28;20296;-79
2023/11/24 11:04:55;;;;;;;6.73;2.23;;;;;;;7.37;100.00;97378.50;5040794;28;20215;-79
2023/11/24 11:07:27;;;;;;;5.63;2.10;;;;;;;7.41;100.00;97377.38;5047115;28;20204;-76
2023/11/24 11:10:02;;;;;;;4.50;1.90;;;;;;;7.46;100.00;97391.00;5040538;28;20254;-79
2023/11/24 11:12:39;;;;;;;5.37;1.73;;;;;;;7.50;100.00;97368.84;5051150;28;20726;-79
2023/11/24 11:15:09;;;;;;;7.07;2.13;;;;;;;7.55;100.00;97366.72;5051086;28;20519;-77
2023/11/24 11:17:38;;;;;;;6.80;1.97;;;;;;;7.54;100.00;97363.25;5024039;28;20239;-79
2023/11/24 11:20:12;;;;;;;7.35;2.30;;;;;;;7.57;100.00;97356.94;5024703;28;20448;-79
2023/11/24 11:22:40;;;;;;;8.13;2.00;;;;;;;7.64;100.00;97359.03;5021693;28;20240;-79
2023/11/24 11:25:42;;;;;;;5.10;2.07;;;;;;;7.63;100.00;97351.25;5030653;28;20218;-78
2023/11/24 11:28:34;;;;;;;8.17;1.80;;;;;;;7.61;100.00;97354.03;5037641;28;20204;-79
2023/11/24 11:31:20;;;;;;;8.30;2.43;;;;;;;7.67;100.00;97343.06;5039330;28;20258;-79
2023/11/24 11:33:47;;;;;;;7.40;2.00;;;;;;;7.60;100.00;97339.16;5034848;28;20200;-79
2023/11/24 11:36:18;;;;;;;5.00;1.97;;;;;;;7.59;100.00;97340.13;5044357;28;20196;-79